sensor_id;sensor_type;location;lat;lon;timestamp;temperature;humidity
36690;DHT22;22676;51.120;3.702;2023-07-31T00:00:47;26.50;57.80
36690;DHT22;22676;51.120;3.702;2023-07-31T00:03:12;26.40;57.70
36690;DHT22;22676;51.120;3.702;2023-07-31T00:05:38;26.40;57.70
36690;DHT22;22676;51.120;3.702;2023-07-31T00:08:03;26.40;57.80
36690;DHT22;22676;51.120;3.702;2023-07-31T00:10:29;26.40;57.90
36690;DHT22;22676;51.120;3.702;2023-07-31T00:12:55;26.40;57.70
36690;DHT22;22676;51.120;3.702;2023-07-31T00:15:20;26.30;57.80
36690;DHT22;22676;51.120;3.702;2023-07-31T00:17:46;26.30;57.80
36690;DHT22;22676;51.120;3.702;2023-07-31T00:20:13;26.30;57.90
36690;DHT22;22676;51.120;3.702;2023-07-31T00:22:38;26.30;57.90
36690;DHT22;22676;51.120;3.702;2023-07-31T00:25:04;26.30;57.90
36690;DHT22;22676;51.120;3.702;2023-07-31T00:27:32;26.20;57.90
36690;DHT22;22676;51.120;3.702;2023-07-31T00:29:57;26.20;58.00
36690;DHT22;22676;51.120;3.702;2023-07-31T00:32:23;26.20;58.00
36690;DHT22;22676;51.120;3.702;2023-07-31T00:34:49;26.20;58.00
36690;DHT22;22676;51.120;3.702;2023-07-31T00:37:14;26.20;58.30
36690;DHT22;22676;51.120;3.702;2023-07-31T00:39:41;26.10;57.90
36690;DHT22;22676;51.120;3.702;2023-07-31T00:42:06;26.10;57.50
36690;DHT22;22676;51.120;3.702;2023-07-31T00:44:32;26.10;57.00
36690;DHT22;22676;51.120;3.702;2023-07-31T00:46:58;26.00;57.40
36690;DHT22;22676;51.120;3.702;2023-07-31T00:49:25;26.00;57.80
36690;DHT22;22676;51.120;3.702;2023-07-31T00:51:52;26.00;58.00
36690;DHT22;22676;51.120;3.702;2023-07-31T00:54:18;25.90;58.10
36690;DHT22;22676;51.120;3.702;2023-07-31T00:56:45;25.90;58.20
36690;DHT22;22676;51.120;3.702;2023-07-31T00:59:11;25.90;58.20
36690;DHT22;22676;51.120;3.702;2023-07-31T01:01:37;25.90;58.40
36690;DHT22;22676;51.120;3.702;2023-07-31T01:04:03;25.90;58.40
36690;DHT22;22676;51.120;3.702;2023-07-31T01:09:12;25.90;58.40
36690;DHT22;22676;51.120;3.702;2023-07-31T01:11:51;25.80;59.00
36690;DHT22;22676;51.120;3.702;2023-07-31T01:14:18;25.80;58.40
36690;DHT22;22676;51.120;3.702;2023-07-31T01:16:43;25.80;58.60
36690;DHT22;22676;51.120;3.702;2023-07-31T01:19:10;25.80;58.70
36690;DHT22;22676;51.120;3.702;2023-07-31T01:26:53;25.70;58.60
36690;DHT22;22676;51.120;3.702;2023-07-31T01:29:38;25.70;58.60
36690;DHT22;22676;51.120;3.702;2023-07-31T01:32:07;25.70;58.70
36690;DHT22;22676;51.120;3.702;2023-07-31T01:34:34;25.70;58.70
36690;DHT22;22676;51.120;3.702;2023-07-31T01:37:00;25.60;58.60
36690;DHT22;22676;51.120;3.702;2023-07-31T01:39:26;25.70;58.60
36690;DHT22;22676;51.120;3.702;2023-07-31T01:41:52;25.60;57.90
36690;DHT22;22676;51.120;3.702;2023-07-31T01:44:17;25.70;57.50
36690;DHT22;22676;51.120;3.702;2023-07-31T01:46:43;25.60;57.70
36690;DHT22;22676;51.120;3.702;2023-07-31T01:49:09;25.50;57.90
36690;DHT22;22676;51.120;3.702;2023-07-31T01:51:35;25.60;58.10
36690;DHT22;22676;51.120;3.702;2023-07-31T01:54:01;25.50;58.40
36690;DHT22;22676;51.120;3.702;2023-07-31T01:56:26;25.50;58.30
36690;DHT22;22676;51.120;3.702;2023-07-31T01:58:52;25.50;58.40
36690;DHT22;22676;51.120;3.702;2023-07-31T02:01:18;25.50;58.40
36690;DHT22;22676;51.120;3.702;2023-07-31T02:03:43;25.50;58.30
36690;DHT22;22676;51.120;3.702;2023-07-31T02:06:09;25.50;58.40
36690;DHT22;22676;51.120;3.702;2023-07-31T02:08:34;25.50;58.30
36690;DHT22;22676;51.120;3.702;2023-07-31T02:11:00;25.50;58.40
36690;DHT22;22676;51.120;3.702;2023-07-31T02:13:26;25.50;58.30
36690;DHT22;22676;51.120;3.702;2023-07-31T02:15:51;25.50;58.30
36690;DHT22;22676;51.120;3.702;2023-07-31T02:18:17;25.50;58.40
36690;DHT22;22676;51.120;3.702;2023-07-31T02:20:43;25.50;58.50
36690;DHT22;22676;51.120;3.702;2023-07-31T02:23:11;25.50;58.30
36690;DHT22;22676;51.120;3.702;2023-07-31T02:25:37;25.50;58.50
36690;DHT22;22676;51.120;3.702;2023-07-31T02:28:02;25.40;58.50
36690;DHT22;22676;51.120;3.702;2023-07-31T02:30:28;25.40;58.50
36690;DHT22;22676;51.120;3.702;2023-07-31T02:32:54;25.40;58.60
36690;DHT22;22676;51.120;3.702;2023-07-31T02:35:19;25.40;58.50
36690;DHT22;22676;51.120;3.702;2023-07-31T02:37:45;25.40;58.60
36690;DHT22;22676;51.120;3.702;2023-07-31T02:40:11;25.40;58.30
36690;DHT22;22676;51.120;3.702;2023-07-31T02:42:37;25.40;57.70
36690;DHT22;22676;51.120;3.702;2023-07-31T02:45:02;25.40;57.30
36690;DHT22;22676;51.120;3.702;2023-07-31T02:47:28;25.30;57.70
36690;DHT22;22676;51.120;3.702;2023-07-31T02:49:54;25.30;57.90
36690;DHT22;22676;51.120;3.702;2023-07-31T02:52:21;25.20;58.10
36690;DHT22;22676;51.120;3.702;2023-07-31T02:54:46;25.30;58.30
36690;DHT22;22676;51.120;3.702;2023-07-31T02:57:12;25.30;58.40
36690;DHT22;22676;51.120;3.702;2023-07-31T02:59:38;25.20;58.30
36690;DHT22;22676;51.120;3.702;2023-07-31T03:02:04;25.20;58.40
36690;DHT22;22676;51.120;3.702;2023-07-31T03:04:29;25.20;58.50
36690;DHT22;22676;51.120;3.702;2023-07-31T03:06:55;25.30;58.30
36690;DHT22;22676;51.120;3.702;2023-07-31T03:09:20;25.20;58.30
36690;DHT22;22676;51.120;3.702;2023-07-31T03:11:46;25.20;58.30
36690;DHT22;22676;51.120;3.702;2023-07-31T03:14:12;25.20;58.30
36690;DHT22;22676;51.120;3.702;2023-07-31T03:16:37;25.20;58.30
36690;DHT22;22676;51.120;3.702;2023-07-31T03:19:03;25.20;58.40
36690;DHT22;22676;51.120;3.702;2023-07-31T03:21:28;25.20;58.30
36690;DHT22;22676;51.120;3.702;2023-07-31T03:23:54;25.20;58.30
36690;DHT22;22676;51.120;3.702;2023-07-31T03:26:20;25.20;58.20
36690;DHT22;22676;51.120;3.702;2023-07-31T03:28:45;25.20;58.10
36690;DHT22;22676;51.120;3.702;2023-07-31T03:31:11;25.20;58.20
36690;DHT22;22676;51.120;3.702;2023-07-31T03:33:37;25.20;58.30
36690;DHT22;22676;51.120;3.702;2023-07-31T03:36:03;25.20;58.30
36690;DHT22;22676;51.120;3.702;2023-07-31T03:38:28;25.20;58.20
36690;DHT22;22676;51.120;3.702;2023-07-31T03:40:54;25.20;57.90
36690;DHT22;22676;51.120;3.702;2023-07-31T03:43:20;25.20;57.40
36690;DHT22;22676;51.120;3.702;2023-07-31T03:45:45;25.20;57.20
36690;DHT22;22676;51.120;3.702;2023-07-31T03:48:11;25.20;57.40
36690;DHT22;22676;51.120;3.702;2023-07-31T03:50:37;25.20;57.60
36690;DHT22;22676;51.120;3.702;2023-07-31T03:53:02;25.20;57.80
36690;DHT22;22676;51.120;3.702;2023-07-31T03:55:28;25.20;57.80
36690;DHT22;22676;51.120;3.702;2023-07-31T03:57:54;25.20;57.80
36690;DHT22;22676;51.120;3.702;2023-07-31T04:00:19;25.20;57.80
36690;DHT22;22676;51.120;3.702;2023-07-31T04:02:46;25.20;57.90
36690;DHT22;22676;51.120;3.702;2023-07-31T04:05:11;25.20;57.90
36690;DHT22;22676;51.120;3.702;2023-07-31T04:07:37;25.20;57.80
36690;DHT22;22676;51.120;3.702;2023-07-31T04:10:03;25.20;57.80
36690;DHT22;22676;51.120;3.702;2023-07-31T04:12:29;25.20;57.90
36690;DHT22;22676;51.120;3.702;2023-07-31T04:14:54;25.20;57.80
36690;DHT22;22676;51.120;3.702;2023-07-31T04:17:20;25.20;57.80
36690;DHT22;22676;51.120;3.702;2023-07-31T04:19:46;25.20;57.70
36690;DHT22;22676;51.120;3.702;2023-07-31T04:22:11;25.20;57.80
36690;DHT22;22676;51.120;3.702;2023-07-31T04:24:37;25.20;57.80
36690;DHT22;22676;51.120;3.702;2023-07-31T04:27:03;25.20;57.90
36690;DHT22;22676;51.120;3.702;2023-07-31T04:29:28;25.20;57.80
36690;DHT22;22676;51.120;3.702;2023-07-31T04:31:54;25.20;57.70
36690;DHT22;22676;51.120;3.702;2023-07-31T04:34:20;25.20;57.70
36690;DHT22;22676;51.120;3.702;2023-07-31T04:36:45;25.20;57.70
36690;DHT22;22676;51.120;3.702;2023-07-31T04:39:11;25.10;57.60
36690;DHT22;22676;51.120;3.702;2023-07-31T04:41:36;25.10;57.40
36690;DHT22;22676;51.120;3.702;2023-07-31T04:44:02;25.10;57.10
36690;DHT22;22676;51.120;3.702;2023-07-31T04:46:29;25.10;57.20
36690;DHT22;22676;51.120;3.702;2023-07-31T04:48:55;25.10;57.20
36690;DHT22;22676;51.120;3.702;2023-07-31T04:51:21;25.10;57.20
36690;DHT22;22676;51.120;3.702;2023-07-31T04:53:48;25.00;57.30
36690;DHT22;22676;51.120;3.702;2023-07-31T04:56:14;25.00;57.30
36690;DHT22;22676;51.120;3.702;2023-07-31T04:58:40;25.10;57.50
36690;DHT22;22676;51.120;3.702;2023-07-31T05:01:06;25.00;57.50
36690;DHT22;22676;51.120;3.702;2023-07-31T05:03:32;25.00;57.60
36690;DHT22;22676;51.120;3.702;2023-07-31T05:05:57;25.00;57.70
36690;DHT22;22676;51.120;3.702;2023-07-31T05:08:23;25.10;57.80
36690;DHT22;22676;51.120;3.702;2023-07-31T05:10:48;25.10;57.80
36690;DHT22;22676;51.120;3.702;2023-07-31T05:13:14;25.10;57.80
36690;DHT22;22676;51.120;3.702;2023-07-31T05:15:41;25.10;57.80
36690;DHT22;22676;51.120;3.702;2023-07-31T05:18:07;25.20;57.70
36690;DHT22;22676;51.120;3.702;2023-07-31T05:20:32;25.20;57.80
36690;DHT22;22676;51.120;3.702;2023-07-31T05:22:58;25.20;57.90
36690;DHT22;22676;51.120;3.702;2023-07-31T05:25:24;25.10;57.70
36690;DHT22;22676;51.120;3.702;2023-07-31T05:27:49;25.10;57.60
36690;DHT22;22676;51.120;3.702;2023-07-31T05:30:15;25.10;57.60
36690;DHT22;22676;51.120;3.702;2023-07-31T05:32:41;25.10;57.70
36690;DHT22;22676;51.120;3.702;2023-07-31T05:35:06;25.10;57.80
36690;DHT22;22676;51.120;3.702;2023-07-31T05:37:32;25.10;57.80
36690;DHT22;22676;51.120;3.702;2023-07-31T05:39:58;25.10;57.70
36690;DHT22;22676;51.120;3.702;2023-07-31T05:42:24;25.10;57.50
36690;DHT22;22676;51.120;3.702;2023-07-31T05:44:49;25.10;57.20
36690;DHT22;22676;51.120;3.702;2023-07-31T05:47:15;25.10;57.30
36690;DHT22;22676;51.120;3.702;2023-07-31T05:49:41;25.10;57.30
36690;DHT22;22676;51.120;3.702;2023-07-31T05:52:06;25.10;57.50
36690;DHT22;22676;51.120;3.702;2023-07-31T05:54:32;25.00;57.30
36690;DHT22;22676;51.120;3.702;2023-07-31T05:56:58;25.00;57.40
36690;DHT22;22676;51.120;3.702;2023-07-31T05:59:24;25.00;57.40
36690;DHT22;22676;51.120;3.702;2023-07-31T06:01:50;25.00;57.60
36690;DHT22;22676;51.120;3.702;2023-07-31T06:04:15;25.00;57.60
36690;DHT22;22676;51.120;3.702;2023-07-31T06:06:41;25.00;57.60
36690;DHT22;22676;51.120;3.702;2023-07-31T06:09:06;25.00;57.70
36690;DHT22;22676;51.120;3.702;2023-07-31T06:11:32;25.00;57.60
36690;DHT22;22676;51.120;3.702;2023-07-31T06:13:58;25.00;57.50
36690;DHT22;22676;51.120;3.702;2023-07-31T06:16:25;25.00;57.60
36690;DHT22;22676;51.120;3.702;2023-07-31T06:18:51;25.00;57.50
36690;DHT22;22676;51.120;3.702;2023-07-31T06:21:17;25.00;57.50
36690;DHT22;22676;51.120;3.702;2023-07-31T06:23:42;25.00;57.60
36690;DHT22;22676;51.120;3.702;2023-07-31T06:26:08;25.00;57.50
36690;DHT22;22676;51.120;3.702;2023-07-31T06:28:34;25.00;57.30
36690;DHT22;22676;51.120;3.702;2023-07-31T06:31:00;25.00;57.30
36690;DHT22;22676;51.120;3.702;2023-07-31T06:33:26;25.00;57.30
36690;DHT22;22676;51.120;3.702;2023-07-31T06:35:52;25.00;57.30
36690;DHT22;22676;51.120;3.702;2023-07-31T06:38:25;25.00;57.20
36690;DHT22;22676;51.120;3.702;2023-07-31T06:40:51;25.00;57.20
36690;DHT22;22676;51.120;3.702;2023-07-31T06:43:16;25.00;57.00
36690;DHT22;22676;51.120;3.702;2023-07-31T06:45:42;25.00;56.90
36690;DHT22;22676;51.120;3.702;2023-07-31T06:48:08;25.00;56.90
36690;DHT22;22676;51.120;3.702;2023-07-31T06:50:34;25.00;57.00
36690;DHT22;22676;51.120;3.702;2023-07-31T06:52:59;25.00;56.90
36690;DHT22;22676;51.120;3.702;2023-07-31T06:55:26;25.00;56.90
36690;DHT22;22676;51.120;3.702;2023-07-31T06:57:54;25.00;56.90
36690;DHT22;22676;51.120;3.702;2023-07-31T07:00:20;25.00;57.40
36690;DHT22;22676;51.120;3.702;2023-07-31T07:02:47;25.00;56.90
36690;DHT22;22676;51.120;3.702;2023-07-31T07:05:13;25.10;56.90
36690;DHT22;22676;51.120;3.702;2023-07-31T07:07:39;25.00;56.90
36690;DHT22;22676;51.120;3.702;2023-07-31T07:10:05;25.00;56.90
36690;DHT22;22676;51.120;3.702;2023-07-31T07:12:31;25.00;56.90
36690;DHT22;22676;51.120;3.702;2023-07-31T07:14:57;25.00;56.90
36690;DHT22;22676;51.120;3.702;2023-07-31T07:17:23;25.10;57.00
36690;DHT22;22676;51.120;3.702;2023-07-31T07:19:49;25.10;56.90
36690;DHT22;22676;51.120;3.702;2023-07-31T07:22:15;25.00;56.80
36690;DHT22;22676;51.120;3.702;2023-07-31T07:24:41;25.10;56.80
36690;DHT22;22676;51.120;3.702;2023-07-31T07:27:06;25.10;57.30
36690;DHT22;22676;51.120;3.702;2023-07-31T07:29:34;25.10;56.80
36690;DHT22;22676;51.120;3.702;2023-07-31T07:31:59;25.10;56.80
36690;DHT22;22676;51.120;3.702;2023-07-31T07:34:26;25.20;56.80
36690;DHT22;22676;51.120;3.702;2023-07-31T07:36:52;25.10;56.70
36690;DHT22;22676;51.120;3.702;2023-07-31T07:39:18;25.20;56.60
36690;DHT22;22676;51.120;3.702;2023-07-31T07:41:44;25.20;56.60
36690;DHT22;22676;51.120;3.702;2023-07-31T07:44:10;25.20;56.60
36690;DHT22;22676;51.120;3.702;2023-07-31T07:46:35;25.10;56.60
36690;DHT22;22676;51.120;3.702;2023-07-31T07:49:01;25.10;56.50
36690;DHT22;22676;51.120;3.702;2023-07-31T07:51:26;25.20;56.50
36690;DHT22;22676;51.120;3.702;2023-07-31T07:53:52;25.20;56.50
36690;DHT22;22676;51.120;3.702;2023-07-31T07:56:18;25.10;56.50
36690;DHT22;22676;51.120;3.702;2023-07-31T07:58:43;25.20;56.50
36690;DHT22;22676;51.120;3.702;2023-07-31T08:01:09;25.20;56.60
36690;DHT22;22676;51.120;3.702;2023-07-31T08:03:34;25.20;56.50
36690;DHT22;22676;51.120;3.702;2023-07-31T08:06:00;25.20;56.40
36690;DHT22;22676;51.120;3.702;2023-07-31T08:08:27;25.20;56.40
36690;DHT22;22676;51.120;3.702;2023-07-31T08:10:53;25.20;56.40
36690;DHT22;22676;51.120;3.702;2023-07-31T08:13:19;25.20;56.40
36690;DHT22;22676;51.120;3.702;2023-07-31T08:15:44;25.20;56.30
36690;DHT22;22676;51.120;3.702;2023-07-31T08:18:10;25.20;56.40
36690;DHT22;22676;51.120;3.702;2023-07-31T08:20:37;25.20;56.40
36690;DHT22;22676;51.120;3.702;2023-07-31T08:23:03;25.20;56.40
36690;DHT22;22676;51.120;3.702;2023-07-31T08:25:29;25.20;56.40
36690;DHT22;22676;51.120;3.702;2023-07-31T08:27:54;25.20;56.30
36690;DHT22;22676;51.120;3.702;2023-07-31T08:30:21;25.20;56.30
36690;DHT22;22676;51.120;3.702;2023-07-31T08:32:47;25.30;56.30
36690;DHT22;22676;51.120;3.702;2023-07-31T08:35:12;25.30;56.30
36690;DHT22;22676;51.120;3.702;2023-07-31T08:37:38;25.30;56.30
36690;DHT22;22676;51.120;3.702;2023-07-31T08:40:05;25.20;56.30
36690;DHT22;22676;51.120;3.702;2023-07-31T08:42:31;25.20;56.30
36690;DHT22;22676;51.120;3.702;2023-07-31T08:44:59;25.30;56.30
36690;DHT22;22676;51.120;3.702;2023-07-31T08:47:25;25.30;56.30
36690;DHT22;22676;51.120;3.702;2023-07-31T08:49:53;25.30;56.30
36690;DHT22;22676;51.120;3.702;2023-07-31T08:52:19;25.20;56.40
36690;DHT22;22676;51.120;3.702;2023-07-31T08:54:45;25.20;56.30
36690;DHT22;22676;51.120;3.702;2023-07-31T08:57:12;25.30;56.30
36690;DHT22;22676;51.120;3.702;2023-07-31T08:59:39;25.30;56.20
36690;DHT22;22676;51.120;3.702;2023-07-31T09:02:07;25.30;56.10
36690;DHT22;22676;51.120;3.702;2023-07-31T09:04:34;25.40;56.20
36690;DHT22;22676;51.120;3.702;2023-07-31T09:07:02;25.40;56.10
36690;DHT22;22676;51.120;3.702;2023-07-31T09:09:31;25.40;56.20
36690;DHT22;22676;51.120;3.702;2023-07-31T09:11:58;25.40;56.30
36690;DHT22;22676;51.120;3.702;2023-07-31T09:14:25;25.40;56.50
36690;DHT22;22676;51.120;3.702;2023-07-31T09:16:55;25.40;56.60
36690;DHT22;22676;51.120;3.702;2023-07-31T09:19:34;25.30;56.70
36690;DHT22;22676;51.120;3.702;2023-07-31T09:22:03;25.30;56.70
36690;DHT22;22676;51.120;3.702;2023-07-31T09:24:30;25.40;56.90
36690;DHT22;22676;51.120;3.702;2023-07-31T09:26:57;25.30;57.30
36690;DHT22;22676;51.120;3.702;2023-07-31T09:29:24;25.40;56.80
36690;DHT22;22676;51.120;3.702;2023-07-31T09:31:50;25.40;56.80
36690;DHT22;22676;51.120;3.702;2023-07-31T09:34:16;25.40;56.90
36690;DHT22;22676;51.120;3.702;2023-07-31T09:36:45;25.30;57.00
36690;DHT22;22676;51.120;3.702;2023-07-31T09:39:12;25.30;57.00
36690;DHT22;22676;51.120;3.702;2023-07-31T09:41:39;25.40;57.10
36690;DHT22;22676;51.120;3.702;2023-07-31T09:44:06;25.40;57.10
36690;DHT22;22676;51.120;3.702;2023-07-31T09:46:32;25.40;57.00
36690;DHT22;22676;51.120;3.702;2023-07-31T09:49:09;25.40;57.10
36690;DHT22;22676;51.120;3.702;2023-07-31T09:51:40;25.40;57.50
36690;DHT22;22676;51.120;3.702;2023-07-31T09:54:10;25.40;56.90
36690;DHT22;22676;51.120;3.702;2023-07-31T09:56:48;25.40;57.10
36690;DHT22;22676;51.120;3.702;2023-07-31T09:59:19;25.40;57.10
36690;DHT22;22676;51.120;3.702;2023-07-31T10:01:45;25.40;57.20
36690;DHT22;22676;51.120;3.702;2023-07-31T10:04:12;25.40;57.20
36690;DHT22;22676;51.120;3.702;2023-07-31T10:06:40;25.40;57.20
36690;DHT22;22676;51.120;3.702;2023-07-31T10:09:09;25.40;57.20
36690;DHT22;22676;51.120;3.702;2023-07-31T10:11:47;25.50;57.30
36690;DHT22;22676;51.120;3.702;2023-07-31T10:14:19;25.40;57.20
36690;DHT22;22676;51.120;3.702;2023-07-31T10:16:45;25.50;57.30
36690;DHT22;22676;51.120;3.702;2023-07-31T10:19:11;25.50;57.40
36690;DHT22;22676;51.120;3.702;2023-07-31T10:21:37;25.50;57.40
36690;DHT22;22676;51.120;3.702;2023-07-31T10:24:07;25.50;57.60
36690;DHT22;22676;51.120;3.702;2023-07-31T10:26:35;25.50;57.50
36690;DHT22;22676;51.120;3.702;2023-07-31T10:29:03;25.50;57.40
36690;DHT22;22676;51.120;3.702;2023-07-31T10:31:29;25.60;57.10
36690;DHT22;22676;51.120;3.702;2023-07-31T10:33:57;25.70;57.10
36690;DHT22;22676;51.120;3.702;2023-07-31T10:36:24;25.70;57.10
36690;DHT22;22676;51.120;3.702;2023-07-31T10:38:51;25.70;57.00
36690;DHT22;22676;51.120;3.702;2023-07-31T10:41:16;25.70;57.10
36690;DHT22;22676;51.120;3.702;2023-07-31T10:43:43;25.70;57.00
36690;DHT22;22676;51.120;3.702;2023-07-31T10:46:12;25.70;56.90
36690;DHT22;22676;51.120;3.702;2023-07-31T10:48:40;25.70;56.80
36690;DHT22;22676;51.120;3.702;2023-07-31T10:51:11;25.70;56.70
36690;DHT22;22676;51.120;3.702;2023-07-31T10:53:41;25.70;56.80
36690;DHT22;22676;51.120;3.702;2023-07-31T10:56:10;25.60;56.80
36690;DHT22;22676;51.120;3.702;2023-07-31T10:58:39;25.60;56.80
36690;DHT22;22676;51.120;3.702;2023-07-31T11:01:06;25.60;56.80
36690;DHT22;22676;51.120;3.702;2023-07-31T11:03:45;25.60;56.80
36690;DHT22;22676;51.120;3.702;2023-07-31T11:06:13;25.70;56.80
36690;DHT22;22676;51.120;3.702;2023-07-31T11:08:47;25.60;56.80
36690;DHT22;22676;51.120;3.702;2023-07-31T11:11:15;25.70;56.70
36690;DHT22;22676;51.120;3.702;2023-07-31T11:16:08;25.70;56.60
36690;DHT22;22676;51.120;3.702;2023-07-31T11:18:34;25.70;56.50
36690;DHT22;22676;51.120;3.702;2023-07-31T11:21:00;25.70;56.50
36690;DHT22;22676;51.120;3.702;2023-07-31T11:23:25;25.70;56.40
36690;DHT22;22676;51.120;3.702;2023-07-31T11:25:51;25.70;56.30
36690;DHT22;22676;51.120;3.702;2023-07-31T11:28:18;25.70;56.30
36690;DHT22;22676;51.120;3.702;2023-07-31T11:30:44;25.70;56.30
36690;DHT22;22676;51.120;3.702;2023-07-31T11:33:12;25.80;56.30
36690;DHT22;22676;51.120;3.702;2023-07-31T11:35:45;25.80;56.20
36690;DHT22;22676;51.120;3.702;2023-07-31T11:38:29;25.80;56.10
36690;DHT22;22676;51.120;3.702;2023-07-31T11:40:57;25.80;56.60
36690;DHT22;22676;51.120;3.702;2023-07-31T11:43:24;25.90;55.80
36690;DHT22;22676;51.120;3.702;2023-07-31T11:45:51;25.90;55.90
36690;DHT22;22676;51.120;3.702;2023-07-31T11:48:22;25.80;55.80
36690;DHT22;22676;51.120;3.702;2023-07-31T11:50:49;25.90;55.90
36690;DHT22;22676;51.120;3.702;2023-07-31T11:53:19;25.90;55.90
36690;DHT22;22676;51.120;3.702;2023-07-31T11:55:46;25.80;55.80
36690;DHT22;22676;51.120;3.702;2023-07-31T11:58:12;25.80;55.80
36690;DHT22;22676;51.120;3.702;2023-07-31T12:00:38;25.80;55.80
36690;DHT22;22676;51.120;3.702;2023-07-31T12:03:04;25.90;55.90
36690;DHT22;22676;51.120;3.702;2023-07-31T12:05:30;25.80;55.80
36690;DHT22;22676;51.120;3.702;2023-07-31T12:07:56;25.80;55.70
36690;DHT22;22676;51.120;3.702;2023-07-31T12:10:29;25.90;55.80
36690;DHT22;22676;51.120;3.702;2023-07-31T12:13:05;25.90;55.80
36690;DHT22;22676;51.120;3.702;2023-07-31T12:15:37;25.80;55.80
36690;DHT22;22676;51.120;3.702;2023-07-31T12:18:08;25.90;55.90
36690;DHT22;22676;51.120;3.702;2023-07-31T12:20:34;25.80;55.90
36690;DHT22;22676;51.120;3.702;2023-07-31T12:23:01;25.80;56.00
36690;DHT22;22676;51.120;3.702;2023-07-31T12:25:33;25.80;56.10
36690;DHT22;22676;51.120;3.702;2023-07-31T12:28:06;25.80;56.00
36690;DHT22;22676;51.120;3.702;2023-07-31T12:30:34;25.80;55.90
36690;DHT22;22676;51.120;3.702;2023-07-31T12:33:12;25.80;55.90
36690;DHT22;22676;51.120;3.702;2023-07-31T12:35:40;25.80;55.90
36690;DHT22;22676;51.120;3.702;2023-07-31T12:38:06;25.90;55.90
36690;DHT22;22676;51.120;3.702;2023-07-31T12:40:32;25.90;56.10
36690;DHT22;22676;51.120;3.702;2023-07-31T12:43:01;25.80;56.40
36690;DHT22;22676;51.120;3.702;2023-07-31T12:45:27;25.80;57.00
36690;DHT22;22676;51.120;3.702;2023-07-31T12:47:53;25.80;56.40
36690;DHT22;22676;51.120;3.702;2023-07-31T12:50:19;25.70;56.40
36690;DHT22;22676;51.120;3.702;2023-07-31T12:52:44;25.80;56.40
36690;DHT22;22676;51.120;3.702;2023-07-31T12:55:10;25.80;56.40
36690;DHT22;22676;51.120;3.702;2023-07-31T12:57:36;25.70;56.40
36690;DHT22;22676;51.120;3.702;2023-07-31T13:00:03;25.70;56.50
36690;DHT22;22676;51.120;3.702;2023-07-31T13:02:29;25.70;56.50
36690;DHT22;22676;51.120;3.702;2023-07-31T13:04:54;25.70;56.70
36690;DHT22;22676;51.120;3.702;2023-07-31T13:07:22;25.70;56.80
36690;DHT22;22676;51.120;3.702;2023-07-31T13:09:48;25.70;57.50
36690;DHT22;22676;51.120;3.702;2023-07-31T13:12:14;25.70;57.00
36690;DHT22;22676;51.120;3.702;2023-07-31T13:14:40;25.60;56.80
36690;DHT22;22676;51.120;3.702;2023-07-31T13:17:05;25.70;57.00
36690;DHT22;22676;51.120;3.702;2023-07-31T13:19:31;25.60;57.00
36690;DHT22;22676;51.120;3.702;2023-07-31T13:21:57;25.60;57.10
36690;DHT22;22676;51.120;3.702;2023-07-31T13:24:23;25.70;57.20
36690;DHT22;22676;51.120;3.702;2023-07-31T13:26:49;25.60;57.10
36690;DHT22;22676;51.120;3.702;2023-07-31T13:29:15;25.70;57.20
36690;DHT22;22676;51.120;3.702;2023-07-31T13:31:40;25.70;57.40
36690;DHT22;22676;51.120;3.702;2023-07-31T13:34:06;25.60;57.30
36690;DHT22;22676;51.120;3.702;2023-07-31T13:36:31;25.60;57.30
36690;DHT22;22676;51.120;3.702;2023-07-31T13:38:59;25.60;57.30
36690;DHT22;22676;51.120;3.702;2023-07-31T13:41:25;25.70;57.20
36690;DHT22;22676;51.120;3.702;2023-07-31T13:43:50;25.70;57.10
36690;DHT22;22676;51.120;3.702;2023-07-31T13:46:16;25.80;57.00
36690;DHT22;22676;51.120;3.702;2023-07-31T13:48:42;25.80;56.90
36690;DHT22;22676;51.120;3.702;2023-07-31T13:51:07;25.80;56.90
36690;DHT22;22676;51.120;3.702;2023-07-31T13:53:33;25.80;56.90
36690;DHT22;22676;51.120;3.702;2023-07-31T13:55:59;25.80;56.80
36690;DHT22;22676;51.120;3.702;2023-07-31T13:58:24;25.80;56.80
36690;DHT22;22676;51.120;3.702;2023-07-31T14:00:50;25.80;56.90
36690;DHT22;22676;51.120;3.702;2023-07-31T14:03:16;25.80;56.80
36690;DHT22;22676;51.120;3.702;2023-07-31T14:05:41;25.80;56.90
36690;DHT22;22676;51.120;3.702;2023-07-31T14:08:07;25.80;56.80
36690;DHT22;22676;51.120;3.702;2023-07-31T14:10:33;25.80;56.80
36690;DHT22;22676;51.120;3.702;2023-07-31T14:12:58;25.80;56.80
36690;DHT22;22676;51.120;3.702;2023-07-31T14:15:24;25.80;56.70
36690;DHT22;22676;51.120;3.702;2023-07-31T14:17:49;25.80;57.50
36690;DHT22;22676;51.120;3.702;2023-07-31T14:20:15;25.90;56.80
36690;DHT22;22676;51.120;3.702;2023-07-31T14:22:41;25.90;56.60
36690;DHT22;22676;51.120;3.702;2023-07-31T14:25:06;25.90;56.70
36690;DHT22;22676;51.120;3.702;2023-07-31T14:27:33;25.90;56.80
36690;DHT22;22676;51.120;3.702;2023-07-31T14:29:58;25.80;56.70
36690;DHT22;22676;51.120;3.702;2023-07-31T14:32:24;25.80;56.70
36690;DHT22;22676;51.120;3.702;2023-07-31T14:34:51;25.80;56.70
36690;DHT22;22676;51.120;3.702;2023-07-31T14:37:17;25.80;56.70
36690;DHT22;22676;51.120;3.702;2023-07-31T14:39:42;25.80;57.30
36690;DHT22;22676;51.120;3.702;2023-07-31T14:42:09;25.90;56.40
36690;DHT22;22676;51.120;3.702;2023-07-31T14:44:34;25.90;56.70
36690;DHT22;22676;51.120;3.702;2023-07-31T14:47:00;25.90;56.50
36690;DHT22;22676;51.120;3.702;2023-07-31T14:49:26;25.90;56.50
36690;DHT22;22676;51.120;3.702;2023-07-31T14:51:53;25.80;56.70
36690;DHT22;22676;51.120;3.702;2023-07-31T14:54:19;25.80;56.80
36690;DHT22;22676;51.120;3.702;2023-07-31T14:56:45;25.80;56.80
36690;DHT22;22676;51.120;3.702;2023-07-31T14:59:10;25.80;56.80
36690;DHT22;22676;51.120;3.702;2023-07-31T15:01:37;25.70;57.00
36690;DHT22;22676;51.120;3.702;2023-07-31T15:04:03;25.70;56.90
36690;DHT22;22676;51.120;3.702;2023-07-31T15:06:28;25.70;56.90
36690;DHT22;22676;51.120;3.702;2023-07-31T15:08:54;25.70;56.90
36690;DHT22;22676;51.120;3.702;2023-07-31T15:11:20;25.70;56.80
36690;DHT22;22676;51.120;3.702;2023-07-31T15:13:45;25.70;56.60
36690;DHT22;22676;51.120;3.702;2023-07-31T15:16:11;25.70;56.70
36690;DHT22;22676;51.120;3.702;2023-07-31T15:18:37;25.70;56.60
36690;DHT22;22676;51.120;3.702;2023-07-31T15:21:02;25.70;56.70
36690;DHT22;22676;51.120;3.702;2023-07-31T15:23:29;25.70;56.70
36690;DHT22;22676;51.120;3.702;2023-07-31T15:25:55;25.70;56.80
36690;DHT22;22676;51.120;3.702;2023-07-31T15:28:21;25.70;56.80
36690;DHT22;22676;51.120;3.702;2023-07-31T15:30:46;25.70;56.90
36690;DHT22;22676;51.120;3.702;2023-07-31T15:33:12;25.70;57.00
36690;DHT22;22676;51.120;3.702;2023-07-31T15:35:38;25.70;57.10